sensor_id;sensor_type;location;lat;lon;timestamp;P1;durP1;ratioP1;P2;durP2;ratioP2
1563;SDS011;775;51.958;7.976;2022-09-21T00:01:31;5.37;;;2.60;;
1563;SDS011;775;51.958;7.976;2022-09-21T00:03:59;4.00;;;1.80;;
1563;SDS011;775;51.958;7.976;2022-09-21T00:06:28;4.77;;;1.90;;
1563;SDS011;775;51.958;7.976;2022-09-21T00:08:55;4.53;;;1.73;;
1563;SDS011;775;51.958;7.976;2022-09-21T00:11:24;5.30;;;2.23;;
1563;SDS011;775;51.958;7.976;2022-09-21T00:13:52;4.80;;;2.10;;
1563;SDS011;775;51.958;7.976;2022-09-21T00:16:19;4.33;;;1.90;;
1563;SDS011;775;51.958;7.976;2022-09-21T00:18:46;4.30;;;2.00;;
1563;SDS011;775;51.958;7.976;2022-09-21T00:21:14;4.47;;;2.27;;
1563;SDS011;775;51.958;7.976;2022-09-21T00:23:41;4.07;;;2.40;;
1563;SDS011;775;51.958;7.976;2022-09-21T00:26:09;5.57;;;2.43;;
1563;SDS011;775;51.958;7.976;2022-09-21T00:28:37;4.83;;;2.60;;
1563;SDS011;775;51.958;7.976;2022-09-21T00:31:05;4.03;;;2.20;;
1563;SDS011;775;51.958;7.976;2022-09-21T00:33:33;4.27;;;2.10;;
1563;SDS011;775;51.958;7.976;2022-09-21T00:36:01;5.73;;;2.70;;
1563;SDS011;775;51.958;7.976;2022-09-21T00:38:28;6.00;;;2.77;;
1563;SDS011;775;51.958;7.976;2022-09-21T00:40:55;5.37;;;2.37;;
1563;SDS011;775;51.958;7.976;2022-09-21T00:43:22;4.93;;;2.30;;
1563;SDS011;775;51.958;7.976;2022-09-21T00:45:52;4.20;;;2.10;;
1563;SDS011;775;51.958;7.976;2022-09-21T00:48:23;4.47;;;2.20;;
1563;SDS011;775;51.958;7.976;2022-09-21T00:50:51;4.27;;;2.07;;
1563;SDS011;775;51.958;7.976;2022-09-21T00:53:18;4.10;;;1.90;;
1563;SDS011;775;51.958;7.976;2022-09-21T00:55:46;5.70;;;2.20;;
1563;SDS011;775;51.958;7.976;2022-09-21T00:58:14;5.23;;;2.50;;
1563;SDS011;775;51.958;7.976;2022-09-21T01:00:43;5.83;;;2.40;;
1563;SDS011;775;51.958;7.976;2022-09-21T01:03:12;4.30;;;1.87;;
1563;SDS011;775;51.958;7.976;2022-09-21T01:05:39;4.47;;;2.27;;
1563;SDS011;775;51.958;7.976;2022-09-21T01:08:06;5.77;;;2.53;;
1563;SDS011;775;51.958;7.976;2022-09-21T01:10:37;4.57;;;2.20;;
1563;SDS011;775;51.958;7.976;2022-09-21T01:13:09;6.67;;;2.50;;
1563;SDS011;775;51.958;7.976;2022-09-21T01:15:39;5.50;;;2.10;;
1563;SDS011;775;51.958;7.976;2022-09-21T01:18:12;4.30;;;2.20;;
1563;SDS011;775;51.958;7.976;2022-09-21T01:26:25;5.20;;;2.60;;
1563;SDS011;775;51.958;7.976;2022-09-21T01:28:59;4.53;;;2.13;;
1563;SDS011;775;51.958;7.976;2022-09-21T01:31:30;4.87;;;2.20;;
1563;SDS011;775;51.958;7.976;2022-09-21T01:33:58;4.20;;;2.03;;
1563;SDS011;775;51.958;7.976;2022-09-21T01:36:28;4.90;;;2.23;;
1563;SDS011;775;51.958;7.976;2022-09-21T01:38:58;5.53;;;2.47;;
1563;SDS011;775;51.958;7.976;2022-09-21T01:41:28;5.60;;;2.30;;
1563;SDS011;775;51.958;7.976;2022-09-21T01:43:59;4.13;;;2.00;;
1563;SDS011;775;51.958;7.976;2022-09-21T01:46:32;4.10;;;2.10;;
1563;SDS011;775;51.958;7.976;2022-09-21T01:49:00;4.87;;;2.73;;
1563;SDS011;775;51.958;7.976;2022-09-21T01:51:29;4.83;;;2.73;;
1563;SDS011;775;51.958;7.976;2022-09-21T01:54:00;4.50;;;2.50;;
1563;SDS011;775;51.958;7.976;2022-09-21T01:56:29;4.50;;;2.57;;
1563;SDS011;775;51.958;7.976;2022-09-21T01:59:00;4.50;;;2.80;;
1563;SDS011;775;51.958;7.976;2022-09-21T02:01:29;7.20;;;3.23;;
1563;SDS011;775;51.958;7.976;2022-09-21T02:03:58;4.80;;;3.00;;
1563;SDS011;775;51.958;7.976;2022-09-21T02:06:28;4.83;;;3.20;;
1563;SDS011;775;51.958;7.976;2022-09-21T02:08:56;5.80;;;2.83;;
1563;SDS011;775;51.958;7.976;2022-09-21T02:11:23;4.77;;;3.03;;
1563;SDS011;775;51.958;7.976;2022-09-21T02:13:50;4.77;;;2.97;;
1563;SDS011;775;51.958;7.976;2022-09-21T02:16:30;5.47;;;3.30;;
1563;SDS011;775;51.958;7.976;2022-09-21T02:19:03;5.20;;;3.23;;
1563;SDS011;775;51.958;7.976;2022-09-21T02:21:36;4.70;;;2.90;;
1563;SDS011;775;51.958;7.976;2022-09-21T02:24:07;5.03;;;3.47;;
1563;SDS011;775;51.958;7.976;2022-09-21T02:26:36;5.40;;;3.20;;
1563;SDS011;775;51.958;7.976;2022-09-21T02:29:06;6.00;;;3.37;;
1563;SDS011;775;51.958;7.976;2022-09-21T02:31:38;4.67;;;2.63;;
1563;SDS011;775;51.958;7.976;2022-09-21T02:34:09;7.33;;;2.87;;
1563;SDS011;775;51.958;7.976;2022-09-21T02:36:43;4.67;;;2.73;;
1563;SDS011;775;51.958;7.976;2022-09-21T02:39:12;5.00;;;3.07;;
1563;SDS011;775;51.958;7.976;2022-09-21T02:41:42;4.83;;;2.47;;
1563;SDS011;775;51.958;7.976;2022-09-21T02:44:16;5.40;;;3.30;;
1563;SDS011;775;51.958;7.976;2022-09-21T02:46:47;4.83;;;3.00;;
1563;SDS011;775;51.958;7.976;2022-09-21T02:49:18;6.73;;;3.20;;
1563;SDS011;775;51.958;7.976;2022-09-21T02:51:49;5.57;;;2.70;;
1563;SDS011;775;51.958;7.976;2022-09-21T02:54:18;5.77;;;2.57;;
1563;SDS011;775;51.958;7.976;2022-09-21T02:56:48;5.10;;;2.70;;
1563;SDS011;775;51.958;7.976;2022-09-21T02:59:16;5.93;;;3.43;;
1563;SDS011;775;51.958;7.976;2022-09-21T03:01:49;6.33;;;3.60;;
1563;SDS011;775;51.958;7.976;2022-09-21T03:04:18;5.30;;;3.07;;
1563;SDS011;775;51.958;7.976;2022-09-21T03:06:45;5.47;;;3.20;;
1563;SDS011;775;51.958;7.976;2022-09-21T03:09:12;5.07;;;3.27;;
1563;SDS011;775;51.958;7.976;2022-09-21T03:11:39;5.80;;;3.57;;
1563;SDS011;775;51.958;7.976;2022-09-21T03:14:08;5.90;;;3.60;;
1563;SDS011;775;51.958;7.976;2022-09-21T03:16:35;5.53;;;4.00;;
1563;SDS011;775;51.958;7.976;2022-09-21T03:19:04;5.73;;;3.70;;
1563;SDS011;775;51.958;7.976;2022-09-21T03:21:31;5.53;;;3.30;;
1563;SDS011;775;51.958;7.976;2022-09-21T03:23:58;7.27;;;3.90;;
1563;SDS011;775;51.958;7.976;2022-09-21T03:26:26;6.03;;;3.20;;
1563;SDS011;775;51.958;7.976;2022-09-21T03:28:53;5.30;;;3.37;;
1563;SDS011;775;51.958;7.976;2022-09-21T03:31:21;4.90;;;2.90;;
1563;SDS011;775;51.958;7.976;2022-09-21T03:33:48;5.10;;;3.03;;
1563;SDS011;775;51.958;7.976;2022-09-21T03:36:17;5.63;;;3.10;;
1563;SDS011;775;51.958;7.976;2022-09-21T03:38:45;6.03;;;2.60;;
1563;SDS011;775;51.958;7.976;2022-09-21T03:41:12;5.90;;;2.50;;
1563;SDS011;775;51.958;7.976;2022-09-21T03:43:39;4.97;;;3.10;;
1563;SDS011;775;51.958;7.976;2022-09-21T03:46:06;5.17;;;2.87;;
1563;SDS011;775;51.958;7.976;2022-09-21T03:48:33;5.20;;;3.30;;
1563;SDS011;775;51.958;7.976;2022-09-21T03:51:00;4.77;;;2.80;;
1563;SDS011;775;51.958;7.976;2022-09-21T03:53:29;9.70;;;2.90;;
1563;SDS011;775;51.958;7.976;2022-09-21T03:55:56;4.90;;;2.93;;
1563;SDS011;775;51.958;7.976;2022-09-21T03:58:23;4.93;;;3.17;;
1563;SDS011;775;51.958;7.976;2022-09-21T04:00:50;4.87;;;2.73;;
1563;SDS011;775;51.958;7.976;2022-09-21T04:03:18;4.70;;;2.50;;
1563;SDS011;775;51.958;7.976;2022-09-21T04:05:45;5.83;;;2.70;;
1563;SDS011;775;51.958;7.976;2022-09-21T04:08:13;5.60;;;3.30;;
1563;SDS011;775;51.958;7.976;2022-09-21T04:10:42;5.00;;;2.63;;
1563;SDS011;775;51.958;7.976;2022-09-21T04:13:09;8.30;;;2.80;;
1563;SDS011;775;51.958;7.976;2022-09-21T04:15:36;5.53;;;3.30;;
1563;SDS011;775;51.958;7.976;2022-09-21T04:18:03;5.60;;;3.07;;
1563;SDS011;775;51.958;7.976;2022-09-21T04:20:31;4.60;;;2.90;;
1563;SDS011;775;51.958;7.976;2022-09-21T04:22:58;4.30;;;2.27;;
1563;SDS011;775;51.958;7.976;2022-09-21T04:25:25;4.60;;;2.83;;
1563;SDS011;775;51.958;7.976;2022-09-21T04:27:54;6.83;;;2.83;;
1563;SDS011;775;51.958;7.976;2022-09-21T04:30:21;4.83;;;2.87;;
1563;SDS011;775;51.958;7.976;2022-09-21T04:32:48;4.87;;;2.30;;
1563;SDS011;775;51.958;7.976;2022-09-21T04:35:15;6.00;;;3.00;;
1563;SDS011;775;51.958;7.976;2022-09-21T04:37:43;4.23;;;2.50;;
1563;SDS011;775;51.958;7.976;2022-09-21T04:40:10;4.77;;;2.50;;
1563;SDS011;775;51.958;7.976;2022-09-21T04:42:37;5.10;;;2.53;;
1563;SDS011;775;51.958;7.976;2022-09-21T04:45:06;5.47;;;2.90;;
1563;SDS011;775;51.958;7.976;2022-09-21T04:47:33;4.90;;;2.67;;
1563;SDS011;775;51.958;7.976;2022-09-21T04:50:00;4.80;;;2.70;;
1563;SDS011;775;51.958;7.976;2022-09-21T04:52:28;6.30;;;3.40;;
1563;SDS011;775;51.958;7.976;2022-09-21T04:54:56;4.80;;;2.87;;
1563;SDS011;775;51.958;7.976;2022-09-21T04:57:23;5.33;;;2.43;;
1563;SDS011;775;51.958;7.976;2022-09-21T04:59:50;4.90;;;2.73;;
1563;SDS011;775;51.958;7.976;2022-09-21T05:02:19;5.00;;;2.60;;
1563;SDS011;775;51.958;7.976;2022-09-21T05:04:46;6.13;;;3.30;;
1563;SDS011;775;51.958;7.976;2022-09-21T05:07:13;5.33;;;2.80;;
1563;SDS011;775;51.958;7.976;2022-09-21T05:09:41;5.40;;;3.27;;
1563;SDS011;775;51.958;7.976;2022-09-21T05:12:25;5.67;;;3.17;;
1563;SDS011;775;51.958;7.976;2022-09-21T05:14:53;5.43;;;3.10;;
1563;SDS011;775;51.958;7.976;2022-09-21T05:17:21;5.30;;;2.97;;
1563;SDS011;775;51.958;7.976;2022-09-21T05:19:48;5.53;;;3.10;;
1563;SDS011;775;51.958;7.976;2022-09-21T05:22:16;6.20;;;3.00;;
1563;SDS011;775;51.958;7.976;2022-09-21T05:24:43;5.80;;;2.87;;
1563;SDS011;775;51.958;7.976;2022-09-21T05:27:10;7.80;;;2.63;;
1563;SDS011;775;51.958;7.976;2022-09-21T05:29:38;4.23;;;2.33;;
1563;SDS011;775;51.958;7.976;2022-09-21T05:32:07;6.50;;;3.30;;
1563;SDS011;775;51.958;7.976;2022-09-21T05:34:40;5.70;;;2.90;;
1563;SDS011;775;51.958;7.976;2022-09-21T05:37:09;5.80;;;3.20;;
1563;SDS011;775;51.958;7.976;2022-09-21T05:39:39;4.37;;;2.43;;
1563;SDS011;775;51.958;7.976;2022-09-21T05:42:08;4.47;;;2.83;;
1563;SDS011;775;51.958;7.976;2022-09-21T05:44:36;4.90;;;3.10;;
1563;SDS011;775;51.958;7.976;2022-09-21T05:47:06;5.43;;;2.80;;
1563;SDS011;775;51.958;7.976;2022-09-21T05:49:43;6.20;;;2.90;;
1563;SDS011;775;51.958;7.976;2022-09-21T05:52:15;4.40;;;2.40;;
1563;SDS011;775;51.958;7.976;2022-09-21T05:54:49;5.60;;;2.97;;
1563;SDS011;775;51.958;7.976;2022-09-21T05:57:18;4.60;;;2.57;;
1563;SDS011;775;51.958;7.976;2022-09-21T05:59:50;5.20;;;2.87;;
1563;SDS011;775;51.958;7.976;2022-09-21T06:02:24;5.50;;;2.80;;
1563;SDS011;775;51.958;7.976;2022-09-21T06:04:53;9.40;;;2.90;;
1563;SDS011;775;51.958;7.976;2022-09-21T06:07:22;8.00;;;3.27;;
1563;SDS011;775;51.958;7.976;2022-09-21T06:09:49;4.43;;;2.63;;
1563;SDS011;775;51.958;7.976;2022-09-21T06:12:16;12.80;;;4.00;;
1563;SDS011;775;51.958;7.976;2022-09-21T06:14:43;4.73;;;2.77;;
1563;SDS011;775;51.958;7.976;2022-09-21T06:17:10;5.20;;;2.97;;
1563;SDS011;775;51.958;7.976;2022-09-21T06:19:38;5.43;;;3.00;;
1563;SDS011;775;51.958;7.976;2022-09-21T06:22:06;6.30;;;3.53;;
1563;SDS011;775;51.958;7.976;2022-09-21T06:24:33;7.73;;;3.40;;
1563;SDS011;775;51.958;7.976;2022-09-21T06:27:00;6.17;;;3.20;;
1563;SDS011;775;51.958;7.976;2022-09-21T06:29:27;5.50;;;3.10;;
1563;SDS011;775;51.958;7.976;2022-09-21T06:31:55;8.30;;;3.33;;
1563;SDS011;775;51.958;7.976;2022-09-21T06:34:22;5.50;;;3.50;;
1563;SDS011;775;51.958;7.976;2022-09-21T06:36:49;5.30;;;3.03;;
1563;SDS011;775;51.958;7.976;2022-09-21T06:39:17;7.73;;;3.50;;
1563;SDS011;775;51.958;7.976;2022-09-21T06:41:44;8.87;;;3.23;;
1563;SDS011;775;51.958;7.976;2022-09-21T06:44:12;5.73;;;3.40;;
1563;SDS011;775;51.958;7.976;2022-09-21T06:46:39;6.60;;;3.30;;
1563;SDS011;775;51.958;7.976;2022-09-21T06:49:06;7.60;;;3.80;;
1563;SDS011;775;51.958;7.976;2022-09-21T06:51:33;6.13;;;3.87;;
1563;SDS011;775;51.958;7.976;2022-09-21T06:54:01;6.90;;;5.20;;
1563;SDS011;775;51.958;7.976;2022-09-21T06:56:29;7.07;;;4.40;;
1563;SDS011;775;51.958;7.976;2022-09-21T06:58:57;7.00;;;4.10;;
1563;SDS011;775;51.958;7.976;2022-09-21T07:01:24;9.83;;;4.30;;
1563;SDS011;775;51.958;7.976;2022-09-21T07:03:51;7.40;;;4.30;;
1563;SDS011;775;51.958;7.976;2022-09-21T07:06:19;7.67;;;3.90;;
1563;SDS011;775;51.958;7.976;2022-09-21T07:08:46;8.60;;;5.43;;
1563;SDS011;775;51.958;7.976;2022-09-21T07:11:13;7.00;;;4.60;;
1563;SDS011;775;51.958;7.976;2022-09-21T07:13:41;9.53;;;5.37;;
1563;SDS011;775;51.958;7.976;2022-09-21T07:16:09;6.20;;;4.30;;
1563;SDS011;775;51.958;7.976;2022-09-21T07:18:37;8.63;;;5.57;;
1563;SDS011;775;51.958;7.976;2022-09-21T07:21:05;7.70;;;4.90;;
1563;SDS011;775;51.958;7.976;2022-09-21T07:23:33;6.20;;;4.33;;
1563;SDS011;775;51.958;7.976;2022-09-21T07:26:01;6.90;;;4.53;;
1563;SDS011;775;51.958;7.976;2022-09-21T07:28:28;7.57;;;4.47;;
1563;SDS011;775;51.958;7.976;2022-09-21T07:30:57;8.23;;;4.30;;
1563;SDS011;775;51.958;7.976;2022-09-21T07:33:24;8.67;;;5.80;;
1563;SDS011;775;51.958;7.976;2022-09-21T07:35:52;8.30;;;4.63;;
1563;SDS011;775;51.958;7.976;2022-09-21T07:38:20;9.00;;;5.07;;
1563;SDS011;775;51.958;7.976;2022-09-21T07:40:48;7.87;;;4.73;;
1563;SDS011;775;51.958;7.976;2022-09-21T07:43:15;10.33;;;5.83;;
1563;SDS011;775;51.958;7.976;2022-09-21T07:45:42;7.20;;;4.80;;
1563;SDS011;775;51.958;7.976;2022-09-21T07:48:11;7.10;;;5.10;;
1563;SDS011;775;51.958;7.976;2022-09-21T07:50:38;7.47;;;4.70;;
1563;SDS011;775;51.958;7.976;2022-09-21T07:53:06;8.27;;;4.70;;
1563;SDS011;775;51.958;7.976;2022-09-21T07:55:33;8.10;;;5.13;;
1563;SDS011;775;51.958;7.976;2022-09-21T07:58:00;8.03;;;5.77;;
1563;SDS011;775;51.958;7.976;2022-09-21T08:00:45;7.50;;;4.73;;
1563;SDS011;775;51.958;7.976;2022-09-21T08:03:13;6.57;;;4.77;;
1563;SDS011;775;51.958;7.976;2022-09-21T08:05:40;8.57;;;5.60;;
1563;SDS011;775;51.958;7.976;2022-09-21T08:08:07;10.17;;;6.30;;
1563;SDS011;775;51.958;7.976;2022-09-21T08:10:35;15.10;;;10.80;;
1563;SDS011;775;51.958;7.976;2022-09-21T08:13:03;9.80;;;6.90;;
1563;SDS011;775;51.958;7.976;2022-09-21T08:15:31;10.53;;;7.17;;
1563;SDS011;775;51.958;7.976;2022-09-21T08:17:58;11.20;;;6.23;;
1563;SDS011;775;51.958;7.976;2022-09-21T08:20:28;9.40;;;6.70;;
1563;SDS011;775;51.958;7.976;2022-09-21T08:22:55;11.40;;;6.37;;
1563;SDS011;775;51.958;7.976;2022-09-21T08:25:22;9.63;;;6.57;;
1563;SDS011;775;51.958;7.976;2022-09-21T08:27:49;9.47;;;6.47;;
1563;SDS011;775;51.958;7.976;2022-09-21T08:30:16;9.80;;;6.83;;
1563;SDS011;775;51.958;7.976;2022-09-21T08:32:43;10.90;;;6.40;;
1563;SDS011;775;51.958;7.976;2022-09-21T08:35:11;13.43;;;7.37;;
1563;SDS011;775;51.958;7.976;2022-09-21T08:37:40;9.93;;;6.20;;
1563;SDS011;775;51.958;7.976;2022-09-21T08:40:08;12.90;;;6.90;;
1563;SDS011;775;51.958;7.976;2022-09-21T08:42:37;11.07;;;6.47;;
1563;SDS011;775;51.958;7.976;2022-09-21T08:45:08;10.10;;;6.03;;
1563;SDS011;775;51.958;7.976;2022-09-21T08:47:39;9.23;;;6.47;;
1563;SDS011;775;51.958;7.976;2022-09-21T08:50:11;8.50;;;6.50;;
1563;SDS011;775;51.958;7.976;2022-09-21T08:52:45;13.73;;;8.23;;
1563;SDS011;775;51.958;7.976;2022-09-21T08:55:15;11.20;;;7.40;;
1563;SDS011;775;51.958;7.976;2022-09-21T08:57:43;10.33;;;7.20;;
1563;SDS011;775;51.958;7.976;2022-09-21T09:00:12;10.33;;;7.13;;
1563;SDS011;775;51.958;7.976;2022-09-21T09:02:43;9.97;;;7.00;;
1563;SDS011;775;51.958;7.976;2022-09-21T09:05:19;12.87;;;8.67;;
1563;SDS011;775;51.958;7.976;2022-09-21T09:07:54;13.67;;;8.33;;
1563;SDS011;775;51.958;7.976;2022-09-21T09:10:32;12.40;;;7.87;;
1563;SDS011;775;51.958;7.976;2022-09-21T09:13:02;11.80;;;8.30;;
1563;SDS011;775;51.958;7.976;2022-09-21T09:15:43;11.40;;;7.77;;
1563;SDS011;775;51.958;7.976;2022-09-21T09:18:13;12.80;;;7.97;;
1563;SDS011;775;51.958;7.976;2022-09-21T09:20:44;10.93;;;7.80;;
1563;SDS011;775;51.958;7.976;2022-09-21T09:23:16;11.00;;;7.70;;
1563;SDS011;775;51.958;7.976;2022-09-21T09:25:46;12.30;;;7.20;;
1563;SDS011;775;51.958;7.976;2022-09-21T09:28:24;12.63;;;7.37;;
1563;SDS011;775;51.958;7.976;2022-09-21T09:30:55;9.93;;;6.93;;
1563;SDS011;775;51.958;7.976;2022-09-21T09:33:25;12.70;;;7.67;;
1563;SDS011;775;51.958;7.976;2022-09-21T09:35:54;11.00;;;6.73;;
1563;SDS011;775;51.958;7.976;2022-09-21T09:38:26;13.70;;;5.73;;
1563;SDS011;775;51.958;7.976;2022-09-21T09:40:57;12.60;;;5.87;;
1563;SDS011;775;51.958;7.976;2022-09-21T09:43:30;7.80;;;5.00;;
1563;SDS011;775;51.958;7.976;2022-09-21T09:46:05;10.50;;;6.27;;
1563;SDS011;775;51.958;7.976;2022-09-21T09:48:38;8.03;;;4.80;;
1563;SDS011;775;51.958;7.976;2022-09-21T09:51:08;7.00;;;3.83;;
1563;SDS011;775;51.958;7.976;2022-09-21T09:53:38;7.30;;;4.07;;
1563;SDS011;775;51.958;7.976;2022-09-21T09:56:07;6.30;;;3.43;;
1563;SDS011;775;51.958;7.976;2022-09-21T09:58:36;6.13;;;3.77;;
1563;SDS011;775;51.958;7.976;2022-09-21T10:01:05;10.63;;;4.33;;
1563;SDS011;775;51.958;7.976;2022-09-21T10:03:32;7.77;;;4.30;;
1563;SDS011;775;51.958;7.976;2022-09-21T10:06:00;7.60;;;4.77;;
1563;SDS011;775;51.958;7.976;2022-09-21T10:08:38;8.87;;;4.70;;
1563;SDS011;775;51.958;7.976;2022-09-21T10:11:08;8.00;;;4.07;;
1563;SDS011;775;51.958;7.976;2022-09-21T10:13:36;10.60;;;5.00;;
1563;SDS011;775;51.958;7.976;2022-09-21T10:16:04;9.47;;;4.40;;
1563;SDS011;775;51.958;7.976;2022-09-21T10:18:34;8.57;;;5.13;;
1563;SDS011;775;51.958;7.976;2022-09-21T10:21:04;8.03;;;4.33;;
1563;SDS011;775;51.958;7.976;2022-09-21T10:23:32;9.30;;;4.07;;
1563;SDS011;775;51.958;7.976;2022-09-21T10:26:00;7.00;;;3.27;;
1563;SDS011;775;51.958;7.976;2022-09-21T10:28:29;9.33;;;3.80;;
1563;SDS011;775;51.958;7.976;2022-09-21T10:31:06;8.20;;;4.80;;
1563;SDS011;775;51.958;7.976;2022-09-21T10:33:34;6.83;;;3.87;;
1563;SDS011;775;51.958;7.976;2022-09-21T10:36:19;8.03;;;4.07;;
1563;SDS011;775;51.958;7.976;2022-09-21T10:38:47;7.30;;;4.07;;
1563;SDS011;775;51.958;7.976;2022-09-21T10:41:14;6.73;;;2.80;;
1563;SDS011;775;51.958;7.976;2022-09-21T10:43:43;10.43;;;3.47;;
1563;SDS011;775;51.958;7.976;2022-09-21T10:46:10;9.07;;;3.70;;
1563;SDS011;775;51.958;7.976;2022-09-21T10:48:37;5.43;;;2.10;;
1563;SDS011;775;51.958;7.976;2022-09-21T10:51:05;6.33;;;2.73;;
1563;SDS011;775;51.958;7.976;2022-09-21T10:53:32;7.57;;;3.43;;
1563;SDS011;775;51.958;7.976;2022-09-21T10:56:01;10.97;;;3.37;;
1563;SDS011;775;51.958;7.976;2022-09-21T10:58:29;6.70;;;2.87;;
1563;SDS011;775;51.958;7.976;2022-09-21T11:01:08;5.50;;;2.60;;
1563;SDS011;775;51.958;7.976;2022-09-21T11:03:38;6.17;;;3.70;;
1563;SDS011;775;51.958;7.976;2022-09-21T11:06:08;10.60;;;3.17;;
1563;SDS011;775;51.958;7.976;2022-09-21T11:08:39;6.70;;;2.93;;
1563;SDS011;775;51.958;7.976;2022-09-21T11:11:12;5.70;;;2.33;;
1563;SDS011;775;51.958;7.976;2022-09-21T11:13:45;7.03;;;2.00;;
1563;SDS011;775;51.958;7.976;2022-09-21T11:16:16;4.53;;;1.80;;
1563;SDS011;775;51.958;7.976;2022-09-21T11:18:48;8.17;;;3.63;;
1563;SDS011;775;51.958;7.976;2022-09-21T11:21:18;8.07;;;3.60;;
1563;SDS011;775;51.958;7.976;2022-09-21T11:23:54;9.93;;;4.37;;
1563;SDS011;775;51.958;7.976;2022-09-21T11:26:26;8.97;;;5.63;;
1563;SDS011;775;51.958;7.976;2022-09-21T11:28:56;9.23;;;4.83;;
1563;SDS011;775;51.958;7.976;2022-09-21T11:31:43;10.53;;;4.10;;
1563;SDS011;775;51.958;7.976;2022-09-21T11:34:25;9.07;;;4.43;;
1563;SDS011;775;51.958;7.976;2022-09-21T11:36:58;8.70;;;5.27;;
1563;SDS011;775;51.958;7.976;2022-09-21T11:39:35;9.63;;;4.50;;
1563;SDS011;775;51.958;7.976;2022-09-21T11:42:08;8.63;;;4.70;;
1563;SDS011;775;51.958;7.976;2022-09-21T11:44:43;9.00;;;4.90;;
1563;SDS011;775;51.958;7.976;2022-09-21T11:47:19;6.90;;;2.60;;
1563;SDS011;775;51.958;7.976;2022-09-21T11:49:58;8.27;;;2.97;;
1563;SDS011;775;51.958;7.976;2022-09-21T11:52:32;6.40;;;3.03;;
1563;SDS011;775;51.958;7.976;2022-09-21T11:57:48;6.47;;;3.17;;
1563;SDS011;775;51.958;7.976;2022-09-21T12:00:17;6.70;;;3.00;;
1563;SDS011;775;51.958;7.976;2022-09-21T12:02:50;8.13;;;2.73;;
1563;SDS011;775;51.958;7.976;2022-09-21T12:05:21;7.93;;;3.03;;
1563;SDS011;775;51.958;7.976;2022-09-21T12:07:57;6.67;;;3.13;;
1563;SDS011;775;51.958;7.976;2022-09-21T12:13:17;5.90;;;2.30;;
1563;SDS011;775;51.958;7.976;2022-09-21T12:15:48;6.43;;;2.77;;
1563;SDS011;775;51.958;7.976;2022-09-21T12:18:22;5.53;;;2.40;;
1563;SDS011;775;51.958;7.976;2022-09-21T12:20:54;8.47;;;2.50;;
1563;SDS011;775;51.958;7.976;2022-09-21T12:23:25;6.90;;;2.60;;
1563;SDS011;775;51.958;7.976;2022-09-21T12:25:55;8.73;;;2.50;;
1563;SDS011;775;51.958;7.976;2022-09-21T12:28:24;7.23;;;2.40;;
1563;SDS011;775;51.958;7.976;2022-09-21T12:30:54;6.63;;;2.60;;
1563;SDS011;775;51.958;7.976;2022-09-21T12:33:32;5.77;;;2.40;;
1563;SDS011;775;51.958;7.976;2022-09-21T12:36:02;5.30;;;2.20;;
1563;SDS011;775;51.958;7.976;2022-09-21T12:38:32;6.67;;;2.20;;
1563;SDS011;775;51.958;7.976;2022-09-21T12:41:03;4.90;;;1.90;;
1563;SDS011;775;51.958;7.976;2022-09-21T12:43:34;4.90;;;1.77;;
1563;SDS011;775;51.958;7.976;2022-09-21T12:46:04;4.70;;;1.70;;
1563;SDS011;775;51.958;7.976;2022-09-21T12:48:35;6.90;;;2.20;;
1563;SDS011;775;51.958;7.976;2022-09-21T12:51:05;4.53;;;1.50;;
1563;SDS011;775;51.958;7.976;2022-09-21T12:53:37;6.57;;;1.60;;
1563;SDS011;775;51.958;7.976;2022-09-21T12:56:06;6.20;;;1.87;;
1563;SDS011;775;51.958;7.976;2022-09-21T12:58:45;4.77;;;1.60;;
1563;SDS011;775;51.958;7.976;2022-09-21T13:01:17;4.30;;;1.50;;
1563;SDS011;775;51.958;7.976;2022-09-21T13:03:54;4.77;;;1.70;;
1563;SDS011;775;51.958;7.976;2022-09-21T13:06:35;3.60;;;1.30;;
1563;SDS011;775;51.958;7.976;2022-09-21T13:09:04;4.20;;;1.53;;
1563;SDS011;775;51.958;7.976;2022-09-21T13:11:31;5.13;;;1.60;;
1563;SDS011;775;51.958;7.976;2022-09-21T13:14:00;6.93;;;2.20;;
1563;SDS011;775;51.958;7.976;2022-09-21T13:16:29;3.50;;;1.40;;
1563;SDS011;775;51.958;7.976;2022-09-21T13:18:58;3.80;;;1.40;;
1563;SDS011;775;51.958;7.976;2022-09-21T13:21:27;4.57;;;1.30;;
1563;SDS011;775;51.958;7.976;2022-09-21T13:23:55;4.67;;;1.70;;
1563;SDS011;775;51.958;7.976;2022-09-21T13:26:35;3.87;;;1.27;;
1563;SDS011;775;51.958;7.976;2022-09-21T13:31:53;4.83;;;1.53;;
1563;SDS011;775;51.958;7.976;2022-09-21T13:34:32;4.07;;;1.60;;
1563;SDS011;775;51.958;7.976;2022-09-21T13:39:49;5.90;;;1.60;;
1563;SDS011;775;51.958;7.976;2022-09-21T13:47:55;5.47;;;2.00;;
1563;SDS011;775;51.958;7.976;2022-09-21T13:50:26;5.60;;;1.93;;
1563;SDS011;775;51.958;7.976;2022-09-21T13:52:55;6.17;;;2.50;;
1563;SDS011;775;51.958;7.976;2022-09-21T13:55:27;4.00;;;1.37;;
1563;SDS011;775;51.958;7.976;2022-09-21T13:57:56;4.20;;;1.33;;
1563;SDS011;775;51.958;7.976;2022-09-21T14:00:33;7.10;;;1.50;;
1563;SDS011;775;51.958;7.976;2022-09-21T14:03:03;4.47;;;1.57;;
1563;SDS011;775;51.958;7.976;2022-09-21T14:05:34;4.93;;;1.70;;
1563;SDS011;775;51.958;7.976;2022-09-21T14:08:02;4.20;;;1.57;;
1563;SDS011;775;51.958;7.976;2022-09-21T14:10:31;5.20;;;1.80;;
1563;SDS011;775;51.958;7.976;2022-09-21T14:12:59;10.20;;;2.33;;
1563;SDS011;775;51.958;7.976;2022-09-21T14:15:35;4.60;;;1.60;;
1563;SDS011;775;51.958;7.976;2022-09-21T14:18:19;6.00;;;1.70;;
1563;SDS011;775;51.958;7.976;2022-09-21T14:21:07;7.80;;;1.93;;
1563;SDS011;775;51.958;7.976;2022-09-21T14:23:34;6.93;;;2.33;;
1563;SDS011;775;51.958;7.976;2022-09-21T14:28:45;7.30;;;1.73;;
1563;SDS011;775;51.958;7.976;2022-09-21T14:31:16;6.90;;;1.80;;
1563;SDS011;775;51.958;7.976;2022-09-21T14:33:44;4.10;;;2.13;;
1563;SDS011;775;51.958;7.976;2022-09-21T14:36:15;4.00;;;1.40;;
1563;SDS011;775;51.958;7.976;2022-09-21T14:38:44;6.73;;;2.80;;
1563;SDS011;775;51.958;7.976;2022-09-21T14:41:15;5.90;;;2.00;;
1563;SDS011;775;51.958;7.976;2022-09-21T14:43:46;4.10;;;1.50;;
1563;SDS011;775;51.958;7.976;2022-09-21T14:49:03;5.47;;;1.57;;
1563;SDS011;775;51.958;7.976;2022-09-21T14:51:37;5.27;;;1.73;;
1563;SDS011;775;51.958;7.976;2022-09-21T14:54:17;5.07;;;1.97;;
1563;SDS011;775;51.958;7.976;2022-09-21T14:57:01;4.93;;;1.50;;
1563;SDS011;775;51.958;7.976;2022-09-21T14:59:36;6.20;;;2.20;;
1563;SDS011;775;51.958;7.976;2022-09-21T15:02:12;8.03;;;2.43;;
1563;SDS011;775;51.958;7.976;2022-09-21T15:04:45;4.43;;;1.57;;
1563;SDS011;775;51.958;7.976;2022-09-21T15:07:29;4.97;;;1.53;;
1563;SDS011;775;51.958;7.976;2022-09-21T15:10:18;6.10;;;1.80;;
1563;SDS011;775;51.958;7.976;2022-09-21T15:13:07;5.00;;;1.50;;
1563;SDS011;775;51.958;7.976;2022-09-21T15:15:36;5.20;;;2.00;;
1563;SDS011;775;51.958;7.976;2022-09-21T15:18:11;4.87;;;2.00;;
1563;SDS011;775;51.958;7.976;2022-09-21T15:20:44;5.60;;;1.70;;
1563;SDS011;775;51.958;7.976;2022-09-21T15:23:23;5.77;;;2.10;;
1563;SDS011;775;51.958;7.976;2022-09-21T15:25:55;8.53;;;2.10;;
1563;SDS011;775;51.958;7.976;2022-09-21T15:28:23;5.43;;;1.40;;
1563;SDS011;775;51.958;7.976;2022-09-21T15:30:51;6.00;;;1.60;;
1563;SDS011;775;51.958;7.976;2022-09-21T15:33:22;3.70;;;1.40;;
1563;SDS011;775;51.958;7.976;2022-09-21T15:35:49;4.20;;;1.53;;
1563;SDS011;775;51.958;7.976;2022-09-21T15:38:29;4.03;;;1.30;;
1563;SDS011;775;51.958;7.976;2022-09-21T15:40:58;3.70;;;1.50;;
1563;SDS011;775;51.958;7.976;2022-09-21T15:43:25;4.53;;;2.20;;
1563;SDS011;775;51.958;7.976;2022-09-21T15:45:55;6.43;;;2.33;;
1563;SDS011;775;51.958;7.976;2022-09-21T15:48:23;5.43;;;2.50;;
1563;SDS011;775;51.958;7.976;2022-09-21T15:50:51;5.43;;;2.07;;
1563;SDS011;775;51.958;7.976;2022-09-21T15:53:22;5.03;;;1.80;;
1563;SDS011;775;51.958;7.976;2022-09-21T15:55:52;8.30;;;2.20;;
1563;SDS011;775;51.958;7.976;2022-09-21T15:58:22;4.40;;;1.63;;
1563;SDS011;775;51.958;7.976;2022-09-21T16:00:51;5.18;;;1.50;;
1563;SDS011;775;51.958;7.976;2022-09-21T16:03:20;4.73;;;1.50;;
1563;SDS011;775;51.958;7.976;2022-09-21T16:05:48;4.00;;;1.37;;
1563;SDS011;775;51.958;7.976;2022-09-21T16:08:17;4.30;;;1.70;;
1563;SDS011;775;51.958;7.976;2022-09-21T16:10:46;5.03;;;2.07;;
1563;SDS011;775;51.958;7.976;2022-09-21T16:13:16;5.67;;;1.60;;
1563;SDS011;775;51.958;7.976;2022-09-21T16:16:02;3.70;;;1.30;;